createdAt,value
2022-08-02T00:02:17.991Z,84.60
2022-08-02T00:04:41.704Z,84.60
2022-08-02T00:07:05.496Z,84.90
2022-08-02T00:09:29.129Z,84.70
2022-08-02T00:11:52.715Z,84.90
2022-08-02T00:14:17.688Z,85.20
2022-08-02T00:16:41.468Z,84.90
2022-08-02T00:19:05.446Z,85.30
2022-08-02T00:21:29.107Z,85.10
2022-08-02T00:24:28.168Z,85.80
2022-08-02T00:26:36.626Z,85.70
2022-08-02T00:29:00.242Z,85.60
2022-08-02T00:31:25.494Z,85.10
2022-08-02T00:34:26.362Z,85.20
2022-08-02T00:36:33.586Z,85.50
2022-08-02T00:38:57.398Z,85.70
2022-08-02T00:41:23.611Z,85.80
2022-08-02T00:43:49.413Z,85.20
2022-08-02T00:46:13.176Z,85.30
2022-08-02T00:48:41.367Z,85.70
2022-08-02T00:51:06.877Z,85.70
2022-08-02T00:53:31.013Z,86.00
2022-08-02T00:55:55.719Z,85.70
2022-08-02T00:58:19.412Z,85.70
2022-08-02T01:00:43.759Z,86.00
2022-08-02T01:03:07.377Z,86.00
2022-08-02T01:05:46.947Z,85.90
2022-08-02T01:08:16.360Z,85.90
2022-08-02T01:10:40.581Z,85.70
2022-08-02T01:13:04.236Z,86.50
2022-08-02T01:15:35.851Z,86.20
2022-08-02T01:18:10.019Z,85.90
2022-08-02T01:21:26.458Z,86.70
2022-08-02T01:24:04.230Z,86.80
2022-08-02T01:26:41.063Z,86.40
2022-08-02T01:29:10.475Z,86.60
2022-08-02T01:31:38.960Z,86.80
2022-08-02T01:34:07.630Z,86.70
2022-08-02T01:36:37.861Z,86.20
2022-08-02T01:39:04.128Z,86.50
2022-08-02T01:41:29.698Z,86.40
2022-08-02T01:43:57.185Z,87.20
2022-08-02T01:46:22.747Z,87.00
2022-08-02T01:48:50.314Z,87.40
2022-08-02T01:51:19.186Z,87.20
2022-08-02T01:53:45.915Z,87.20
2022-08-02T01:56:10.945Z,87.10
2022-08-02T01:58:38.467Z,87.10
2022-08-02T02:01:03.456Z,87.00
2022-08-02T02:03:30.690Z,87.20
2022-08-02T02:05:59.265Z,87.40
2022-08-02T02:08:29.498Z,87.80
2022-08-02T02:10:54.057Z,87.40
2022-08-02T02:13:21.602Z,87.40
2022-08-02T02:15:58.339Z,87.70
2022-08-02T02:18:27.186Z,87.50
2022-08-02T02:20:51.095Z,87.30
2022-08-02T02:23:18.439Z,87.90
2022-08-02T02:25:48.939Z,87.70
2022-08-02T02:28:18.428Z,87.70
2022-08-02T02:30:47.300Z,87.60
2022-08-02T02:33:13.865Z,87.70
2022-08-02T02:35:39.681Z,88.10
2022-08-02T02:38:12.510Z,87.70
2022-08-02T02:40:38.731Z,87.80
2022-08-02T02:43:03.456Z,88.10
2022-08-02T02:45:28.214Z,88.10
2022-08-02T02:47:52.850Z,88.00
2022-08-02T02:50:18.153Z,88.70
2022-08-02T02:52:44.308Z,88.50
2022-08-02T02:55:10.201Z,88.20
2022-08-02T02:57:34.761Z,88.30
2022-08-02T02:59:58.804Z,88.60
2022-08-02T03:02:22.629Z,88.40
2022-08-02T03:04:57.223Z,88.60
2022-08-02T03:07:21.741Z,88.70
2022-08-02T03:09:47.398Z,88.50
2022-08-02T03:12:20.119Z,88.50
2022-08-02T03:14:45.006Z,88.90
2022-08-02T03:17:13.286Z,88.80
2022-08-02T03:19:36.924Z,88.40
2022-08-02T03:22:00.473Z,89.80
2022-08-02T03:24:28.222Z,88.80
2022-08-02T03:26:53.453Z,90.20
2022-08-02T03:29:17.139Z,90.20
2022-08-02T03:31:45.155Z,90.10
2022-08-02T03:34:09.112Z,90.10
2022-08-02T03:36:34.681Z,90.00
2022-08-02T03:38:59.271Z,90.30
2022-08-02T03:41:24.700Z,90.70
2022-08-02T03:43:50.946Z,90.50
2022-08-02T03:46:16.513Z,90.40
2022-08-02T03:48:40.434Z,90.30
2022-08-02T03:51:04.807Z,90.50
2022-08-02T03:53:29.600Z,90.80
2022-08-02T03:55:55.633Z,90.60
2022-08-02T03:58:21.314Z,90.80
2022-08-02T04:00:47.201Z,90.90
2022-08-02T04:03:11.090Z,90.50
2022-08-02T04:06:03.210Z,90.80
2022-08-02T04:08:37.240Z,90.60
2022-08-02T04:11:19.151Z,91.00
2022-08-02T04:13:43.846Z,91.00
2022-08-02T04:16:15.474Z,91.00
2022-08-02T04:18:47.199Z,91.10
2022-08-02T04:21:15.431Z,90.90
2022-08-02T04:23:39.906Z,90.90
2022-08-02T04:26:05.244Z,91.10
2022-08-02T04:28:33.229Z,91.20
2022-08-02T04:30:57.973Z,91.20
2022-08-02T04:33:24.171Z,91.30
2022-08-02T04:35:48.424Z,91.10
2022-08-02T04:38:14.361Z,91.10
2022-08-02T04:40:38.821Z,91.60
2022-08-02T04:43:02.494Z,91.40
2022-08-02T04:45:28.422Z,91.30
2022-08-02T04:48:01.978Z,91.20
2022-08-02T04:50:30.028Z,91.70
2022-08-02T04:52:53.671Z,91.50
2022-08-02T04:55:17.286Z,89.90
2022-08-02T04:57:58.696Z,90.40
2022-08-02T05:00:23.344Z,90.40
2022-08-02T05:02:47.033Z,90.20
2022-08-02T05:05:10.998Z,90.60
2022-08-02T05:07:36.220Z,90.80
2022-08-02T05:10:00.811Z,93.30
2022-08-02T05:12:26.307Z,93.80
2022-08-02T05:14:49.910Z,93.40
2022-08-02T05:17:13.799Z,93.40
2022-08-02T05:19:38.292Z,93.10
2022-08-02T05:22:05.917Z,92.30
2022-08-02T05:24:31.109Z,92.40
2022-08-02T05:26:54.746Z,92.00
2022-08-02T05:29:18.301Z,91.00
2022-08-02T05:31:41.873Z,92.10
2022-08-02T05:34:08.687Z,92.20
2022-08-02T05:36:35.502Z,92.40
2022-08-02T05:39:05.904Z,92.40
2022-08-02T05:41:36.605Z,91.80
2022-08-02T05:44:00.165Z,91.60
2022-08-02T05:46:24.314Z,91.60
2022-08-02T05:48:52.768Z,91.00
2022-08-02T05:51:30.256Z,90.90
2022-08-02T05:54:11.946Z,91.20
2022-08-02T05:56:47.627Z,90.80
2022-08-02T05:59:22.499Z,90.50
2022-08-02T06:01:50.224Z,91.50
2022-08-02T06:04:23.530Z,90.80
2022-08-02T06:06:51.053Z,90.40
2022-08-02T06:09:26.854Z,88.40
2022-08-02T06:12:01.817Z,90.40
2022-08-02T06:14:30.615Z,88.50
2022-08-02T06:16:55.302Z,87.10
2022-08-02T06:19:20.852Z,87.20
2022-08-02T06:22:34.142Z,86.90
2022-08-02T06:24:28.953Z,86.90
2022-08-02T06:26:56.415Z,87.70
2022-08-02T06:29:23.126Z,86.90
2022-08-02T06:31:47.522Z,86.90
2022-08-02T06:34:11.093Z,85.10
2022-08-02T06:36:43.545Z,84.50
2022-08-02T06:39:16.221Z,85.90
2022-08-02T06:41:42.970Z,85.60
2022-08-02T06:44:47.063Z,85.50
2022-08-02T06:47:12.249Z,84.90
2022-08-02T06:49:51.963Z,85.20
2022-08-02T06:52:19.224Z,84.70
2022-08-02T06:54:43.115Z,84.90
2022-08-02T06:57:08.307Z,85.60
2022-08-02T06:59:33.308Z,84.20
2022-08-02T07:01:59.821Z,83.90
2022-08-02T07:04:23.520Z,83.40
2022-08-02T07:06:46.987Z,82.70
2022-08-02T07:09:20.548Z,83.70
2022-08-02T07:11:44.832Z,83.50
2022-08-02T07:14:08.388Z,83.40
2022-08-02T07:16:33.966Z,83.00
2022-08-02T07:18:57.537Z,82.40
2022-08-02T07:21:56.045Z,80.90
2022-08-02T07:24:05.648Z,79.30
2022-08-02T07:26:29.240Z,80.90
2022-08-02T07:28:55.117Z,79.10
2022-08-02T07:31:18.725Z,78.50
2022-08-02T07:33:47.049Z,79.60
2022-08-02T07:36:17.030Z,78.40
2022-08-02T07:38:46.616Z,78.30
2022-08-02T07:41:10.566Z,77.10
2022-08-02T07:43:35.061Z,77.70
2022-08-02T07:46:00.803Z,76.20
2022-08-02T07:48:24.605Z,76.40
2022-08-02T07:50:50.387Z,76.90
2022-08-02T07:53:14.218Z,75.90
2022-08-02T07:55:39.671Z,75.60
2022-08-02T07:58:03.735Z,75.80
2022-08-02T08:00:27.264Z,75.20
2022-08-02T08:02:50.803Z,73.90
2022-08-02T08:05:15.334Z,74.00
2022-08-02T08:07:40.537Z,73.40
2022-08-02T08:10:04.953Z,73.60
2022-08-02T08:12:28.928Z,73.50
2022-08-02T08:14:52.623Z,73.10
2022-08-02T08:17:20.672Z,73.00
2022-08-02T08:19:53.080Z,72.30
2022-08-02T08:22:18.712Z,70.90
2022-08-02T08:24:43.650Z,72.40
2022-08-02T08:27:10.779Z,73.00
2022-08-02T08:29:34.443Z,71.80
2022-08-02T08:31:58.061Z,72.30
2022-08-02T08:34:21.643Z,71.20
2022-08-02T08:36:45.300Z,72.70
2022-08-02T08:39:10.236Z,72.10
2022-08-02T08:41:36.598Z,73.10
2022-08-02T08:44:00.288Z,71.50
2022-08-02T08:46:30.561Z,71.50
2022-08-02T08:49:00.789Z,72.50
2022-08-02T08:51:26.574Z,71.30
2022-08-02T08:53:51.048Z,71.30
2022-08-02T08:56:16.504Z,72.90
2022-08-02T08:58:42.242Z,69.80
2022-08-02T09:01:06.350Z,69.30
2022-08-02T09:03:33.851Z,68.20
2022-08-02T09:06:00.239Z,67.40
2022-08-02T09:08:23.985Z,67.70
2022-08-02T09:10:52.555Z,68.10
2022-08-02T09:13:38.127Z,67.80
2022-08-02T09:16:12.707Z,68.50
2022-08-02T09:18:39.850Z,68.00
2022-08-02T09:21:05.743Z,67.80
2022-08-02T09:23:37.410Z,67.50
2022-08-02T09:26:07.383Z,68.90
2022-08-02T09:28:33.903Z,67.70
2022-08-02T09:31:08.690Z,66.50
2022-08-02T09:33:32.345Z,66.40
2022-08-02T09:36:07.210Z,66.50
2022-08-02T09:38:32.472Z,66.10
2022-08-02T09:40:56.115Z,65.90
2022-08-02T09:43:20.775Z,65.90
2022-08-02T09:45:44.405Z,66.90
2022-08-02T09:48:10.698Z,65.90
2022-08-02T09:50:39.460Z,64.80
2022-08-02T09:53:04.087Z,63.70
2022-08-02T09:55:27.998Z,64.60
2022-08-02T09:57:51.910Z,65.50
2022-08-02T10:00:23.328Z,65.40
2022-08-02T10:03:16.653Z,65.00
2022-08-02T10:05:55.941Z,64.50
2022-08-02T10:08:21.462Z,64.30
2022-08-02T10:10:45.578Z,64.80
2022-08-02T10:13:09.831Z,64.20
2022-08-02T10:15:33.565Z,64.80
2022-08-02T10:17:57.936Z,64.00
2022-08-02T10:20:24.053Z,66.30
2022-08-02T10:22:48.500Z,64.70
2022-08-02T10:25:12.819Z,64.00
2022-08-02T10:28:04.354Z,64.30
2022-08-02T10:30:22.234Z,62.20
2022-08-02T10:32:47.573Z,62.50
2022-08-02T10:35:19.105Z,62.80
2022-08-02T10:37:54.602Z,62.60
2022-08-02T10:40:26.277Z,62.90
2022-08-02T10:42:52.598Z,62.10
2022-08-02T10:45:18.768Z,62.90
2022-08-02T10:48:02.478Z,62.20
2022-08-02T10:50:56.776Z,62.60
2022-08-02T10:53:28.473Z,61.60
2022-08-02T10:55:52.626Z,61.40
2022-08-02T10:58:20.102Z,58.70
2022-08-02T11:00:43.794Z,59.20
2022-08-02T11:03:07.338Z,61.10
2022-08-02T11:05:43.099Z,61.50
2022-08-02T11:08:21.401Z,61.10
2022-08-02T11:10:47.113Z,61.80
2022-08-02T11:13:15.140Z,62.80
2022-08-02T11:16:05.385Z,60.00
2022-08-02T11:19:06.684Z,60.40
2022-08-02T11:21:31.822Z,60.20
2022-08-02T11:23:56.046Z,59.80
2022-08-02T11:26:46.704Z,60.80
2022-08-02T11:29:10.321Z,58.90
2022-08-02T11:31:44.745Z,59.40
2022-08-02T11:34:09.956Z,59.80
2022-08-02T11:36:33.715Z,58.20
2022-08-02T11:39:11.582Z,57.20
2022-08-02T11:41:46.723Z,59.00
2022-08-02T11:44:12.590Z,59.30
2022-08-02T11:46:38.224Z,58.30
2022-08-02T11:49:14.979Z,59.00
2022-08-02T11:51:39.136Z,59.10
2022-08-02T11:54:06.135Z,57.40
2022-08-02T11:56:32.933Z,56.10
2022-08-02T11:59:07.088Z,59.40
2022-08-02T12:01:41.471Z,57.90
2022-08-02T12:04:09.661Z,57.50
2022-08-02T12:06:34.306Z,56.10
2022-08-02T12:09:06.530Z,57.70
2022-08-02T12:11:42.418Z,57.00
2022-08-02T12:14:06.908Z,54.30
2022-08-02T12:16:55.251Z,54.70
2022-08-02T12:19:23.277Z,58.10
2022-08-02T12:21:47.468Z,56.80
2022-08-02T12:24:11.794Z,52.20
2022-08-02T12:26:44.446Z,53.20
2022-08-02T12:29:08.197Z,55.10
2022-08-02T12:31:56.446Z,55.00
2022-08-02T12:34:22.317Z,55.40
2022-08-02T12:37:04.535Z,53.20
2022-08-02T12:39:40.951Z,55.90
2022-08-02T12:42:05.415Z,55.80
2022-08-02T12:44:29.114Z,53.70
2022-08-02T12:47:04.073Z,57.00
2022-08-02T12:49:27.956Z,51.80
2022-08-02T12:52:00.080Z,52.50
2022-08-02T12:54:32.152Z,50.90
2022-08-02T12:56:56.198Z,51.30
2022-08-02T12:59:38.988Z,54.00
2022-08-02T13:02:07.403Z,56.00
2022-08-02T13:04:31.290Z,53.00
2022-08-02T13:06:55.596Z,53.90
2022-08-02T13:09:19.411Z,53.50
2022-08-02T13:11:44.005Z,52.60
2022-08-02T13:14:08.455Z,52.40
2022-08-02T13:16:33.136Z,51.70
2022-08-02T13:18:58.031Z,51.80
2022-08-02T13:21:40.798Z,52.10
2022-08-02T13:24:05.867Z,51.90
2022-08-02T13:26:49.613Z,50.80
2022-08-02T13:29:14.205Z,49.60
2022-08-02T13:31:38.709Z,51.70
2022-08-02T13:34:03.905Z,53.50
2022-08-02T13:36:28.751Z,52.90
2022-08-02T13:38:52.363Z,51.60
2022-08-02T13:41:15.871Z,51.70
2022-08-02T13:43:54.047Z,52.10
2022-08-02T13:46:28.899Z,51.70
2022-08-02T13:48:53.288Z,52.10
2022-08-02T13:51:18.322Z,51.20
2022-08-02T13:53:42.201Z,51.10
2022-08-02T13:56:06.654Z,52.20
2022-08-02T13:58:30.137Z,51.50
2022-08-02T14:00:53.768Z,51.60
2022-08-02T14:03:17.297Z,51.40
2022-08-02T14:05:48.416Z,51.10
2022-08-02T14:08:16.686Z,48.80
2022-08-02T14:10:40.953Z,51.10
2022-08-02T14:13:04.559Z,51.30
2022-08-02T14:15:30.424Z,49.50
2022-08-02T14:17:54.106Z,50.00
2022-08-02T14:20:22.754Z,47.40
2022-08-02T14:22:53.865Z,49.20
2022-08-02T14:25:19.137Z,49.10
2022-08-02T14:27:42.695Z,46.90
2022-08-02T14:30:07.563Z,48.10
2022-08-02T14:32:32.721Z,48.00
2022-08-02T14:34:56.577Z,47.00
2022-08-02T14:37:20.353Z,47.00
2022-08-02T14:40:00.446Z,47.10
2022-08-02T14:42:27.901Z,48.50
2022-08-02T14:44:51.566Z,47.20
2022-08-02T14:47:15.529Z,46.40
2022-08-02T14:49:41.819Z,47.90
2022-08-02T14:52:07.197Z,48.00
2022-08-02T14:54:32.012Z,48.90
2022-08-02T14:56:55.560Z,47.80
2022-08-02T14:59:20.454Z,47.40
2022-08-02T15:01:44.085Z,48.10
2022-08-02T15:04:07.745Z,48.50
2022-08-02T15:06:33.034Z,47.70
2022-08-02T15:08:56.733Z,48.60
2022-08-02T15:11:20.503Z,48.90
2022-08-02T15:13:44.029Z,49.40
2022-08-02T15:16:10.478Z,49.90
2022-08-02T15:18:34.348Z,50.60
2022-08-02T15:20:58.812Z,48.50
2022-08-02T15:23:22.762Z,49.70
2022-08-02T15:25:46.986Z,49.90
2022-08-02T15:28:10.827Z,50.20
2022-08-02T15:30:34.639Z,51.90
2022-08-02T15:32:59.656Z,49.80
2022-08-02T15:35:23.402Z,48.40
2022-08-02T15:37:46.992Z,48.90
2022-08-02T15:40:12.334Z,47.80
2022-08-02T15:42:36.049Z,48.30
2022-08-02T15:45:00.919Z,48.50
2022-08-02T15:47:24.584Z,49.40
2022-08-02T15:49:50.147Z,49.90
2022-08-02T15:52:14.152Z,50.90
2022-08-02T15:54:37.983Z,50.70
2022-08-02T15:57:01.520Z,49.90
2022-08-02T15:59:25.590Z,48.20
2022-08-02T16:01:49.790Z,49.90
2022-08-02T16:04:13.622Z,50.30
2022-08-02T16:06:38.770Z,52.50
2022-08-02T16:09:02.708Z,49.30
2022-08-02T16:11:26.294Z,49.70
2022-08-02T16:13:53.082Z,47.90
2022-08-02T16:16:17.659Z,48.90
2022-08-02T16:18:41.399Z,50.50
2022-08-02T16:21:05.062Z,50.80
2022-08-02T16:24:02.293Z,51.10
2022-08-02T16:26:13.922Z,50.40
2022-08-02T16:28:37.532Z,50.90
2022-08-02T16:31:11.149Z,48.70
2022-08-02T16:33:35.290Z,48.90
2022-08-02T16:35:59.863Z,48.80
2022-08-02T16:38:23.483Z,47.70
2022-08-02T16:40:48.412Z,46.10
2022-08-02T16:43:12.085Z,47.90
2022-08-02T16:45:35.628Z,49.00
2022-08-02T16:48:03.616Z,50.90
2022-08-02T16:50:29.605Z,48.50
2022-08-02T16:52:53.236Z,47.80
2022-08-02T16:55:17.766Z,48.20
2022-08-02T16:57:45.374Z,47.60
2022-08-02T17:00:16.101Z,49.60
2022-08-02T17:02:40.111Z,48.20
2022-08-02T17:05:03.671Z,50.10
2022-08-02T17:10:11.245Z,49.90
2022-08-02T17:12:35.059Z,49.50
2022-08-02T17:15:00.849Z,47.50
2022-08-02T17:17:34.183Z,49.20
2022-08-02T17:19:58.152Z,49.30
2022-08-02T17:22:24.156Z,49.60
2022-08-02T17:24:49.202Z,48.60
2022-08-02T17:27:13.383Z,50.20
2022-08-02T17:29:39.465Z,49.80
2022-08-02T17:32:11.541Z,48.90
2022-08-02T17:34:36.578Z,48.30
2022-08-02T17:37:00.489Z,47.80
2022-08-02T17:39:24.161Z,49.10
2022-08-02T17:41:57.236Z,49.90
2022-08-02T17:44:37.707Z,49.20
2022-08-02T17:47:01.996Z,48.60
2022-08-02T17:49:27.348Z,50.60
2022-08-02T17:52:49.545Z,50.40
2022-08-02T17:54:37.690Z,51.10
2022-08-02T17:57:02.548Z,51.80
2022-08-02T17:59:31.077Z,50.20
2022-08-02T18:02:06.165Z,50.50
2022-08-02T18:04:34.481Z,50.50
2022-08-02T18:07:04.214Z,51.60
2022-08-02T18:09:28.843Z,51.50
2022-08-02T18:11:53.591Z,50.60
2022-08-02T18:14:18.371Z,49.60
2022-08-02T18:16:42.364Z,50.80
2022-08-02T18:19:06.006Z,50.60
2022-08-02T18:21:42.088Z,51.00
2022-08-02T18:24:07.283Z,51.60
2022-08-02T18:26:31.009Z,52.20
2022-08-02T18:28:55.213Z,52.00
2022-08-02T18:31:22.928Z,51.90
2022-08-02T18:34:00.165Z,52.00
2022-08-02T18:36:25.348Z,52.00
2022-08-02T18:38:50.737Z,51.60
2022-08-02T18:41:14.817Z,51.70
2022-08-02T18:43:43.373Z,53.10
2022-08-02T18:46:15.531Z,51.90
2022-08-02T18:48:44.130Z,52.00
2022-08-02T18:51:11.586Z,52.70
2022-08-02T18:53:41.616Z,52.60
2022-08-02T18:56:08.038Z,52.60
2022-08-02T18:58:35.684Z,52.30
2022-08-02T19:01:00.170Z,52.50
2022-08-02T19:03:28.881Z,52.70
2022-08-02T19:05:54.010Z,53.10
2022-08-02T19:08:18.562Z,53.10
2022-08-02T19:10:46.809Z,53.10
2022-08-02T19:13:17.693Z,52.40
2022-08-02T19:15:41.961Z,53.10
2022-08-02T19:18:08.272Z,52.70
2022-08-02T19:20:32.793Z,53.80
2022-08-02T19:22:57.678Z,53.40
2022-08-02T19:25:27.957Z,54.00
2022-08-02T19:27:52.282Z,53.80
2022-08-02T19:30:18.506Z,54.40
2022-08-02T19:32:59.679Z,54.80
2022-08-02T19:35:30.457Z,54.60
2022-08-02T19:37:55.976Z,55.90
2022-08-02T19:40:28.907Z,55.70
2022-08-02T19:44:23.453Z,57.30
2022-08-02T19:45:50.188Z,57.60
2022-08-02T19:48:15.597Z,58.10
2022-08-02T19:50:40.955Z,57.40
2022-08-02T19:53:08.107Z,59.00
2022-08-02T19:55:59.907Z,59.10
2022-08-02T19:58:18.977Z,59.70
2022-08-02T20:00:48.577Z,60.20
2022-08-02T20:03:16.014Z,60.70
2022-08-02T20:05:39.666Z,60.70
2022-08-02T20:08:03.582Z,61.30
2022-08-02T20:10:28.738Z,61.10
2022-08-02T20:12:53.630Z,61.40
2022-08-02T20:15:17.418Z,61.40
2022-08-02T20:17:47.288Z,62.90
2022-08-02T20:20:12.647Z,64.50
2022-08-02T20:22:53.582Z,64.70
2022-08-02T20:25:17.472Z,65.10
2022-08-02T20:27:51.068Z,63.00
2022-08-02T20:30:15.295Z,65.10
2022-08-02T20:32:38.877Z,65.50
2022-08-02T20:35:18.466Z,65.30
2022-08-02T20:37:59.979Z,65.90
2022-08-02T20:40:26.355Z,65.60
2022-08-02T20:42:54.182Z,66.20
2022-08-02T20:45:18.467Z,66.90
2022-08-02T20:47:42.510Z,66.80
2022-08-02T20:50:31.551Z,67.20
2022-08-02T20:52:57.220Z,68.00
2022-08-02T20:55:22.024Z,68.00
2022-08-02T20:57:48.869Z,67.90
2022-08-02T21:00:24.385Z,68.20
2022-08-02T21:02:47.963Z,68.80
2022-08-02T21:05:17.155Z,69.40
2022-08-02T21:07:41.387Z,69.40
2022-08-02T21:10:13.162Z,69.00
2022-08-02T21:12:37.179Z,69.60
2022-08-02T21:15:05.794Z,69.90
2022-08-02T21:20:13.806Z,68.60
2022-08-02T21:22:40.559Z,70.50
2022-08-02T21:25:04.395Z,70.80
2022-08-02T21:27:53.122Z,71.10
2022-08-02T21:30:18.100Z,70.80
2022-08-02T21:32:41.783Z,70.60
2022-08-02T21:35:09.874Z,71.30
2022-08-02T21:37:45.031Z,71.10
2022-08-02T21:40:11.194Z,71.10
2022-08-02T21:42:36.478Z,71.60
2022-08-02T21:45:00.380Z,72.70
2022-08-02T21:50:15.930Z,72.90
2022-08-02T21:52:40.814Z,73.60
2022-08-02T21:55:14.942Z,73.60
2022-08-02T21:57:40.065Z,73.80
2022-08-02T22:00:05.616Z,74.20
2022-08-02T22:02:32.625Z,75.20
2022-08-02T22:04:56.288Z,74.50
2022-08-02T22:07:23.795Z,74.40
2022-08-02T22:09:48.165Z,73.30
2022-08-02T22:12:18.046Z,73.60
2022-08-02T22:14:44.362Z,74.30
2022-08-02T22:17:13.946Z,74.30
2022-08-02T22:19:37.738Z,73.70
2022-08-02T22:22:04.546Z,73.40
2022-08-02T22:24:30.140Z,74.70
2022-08-02T22:26:54.100Z,75.20
2022-08-02T22:29:18.127Z,75.80
2022-08-02T22:31:43.703Z,76.00
2022-08-02T22:34:26.976Z,75.40
2022-08-02T22:36:53.389Z,74.80
2022-08-02T22:39:18.975Z,74.30
2022-08-02T22:42:01.221Z,75.30
2022-08-02T22:44:27.098Z,75.50
2022-08-02T22:46:52.097Z,74.90
2022-08-02T22:49:18.137Z,75.30
2022-08-02T22:51:59.309Z,75.60
2022-08-02T22:54:22.907Z,76.90
2022-08-02T22:56:47.815Z,77.30
2022-08-02T22:58:50.644Z,52.40
2022-08-02T22:59:02.309Z,68.60
2022-08-02T22:59:03.438Z,72.50
2022-08-02T23:01:42.259Z,77.00
2022-08-02T23:04:07.436Z,77.50
2022-08-02T23:06:31.105Z,77.90
2022-08-02T23:08:54.661Z,77.60
2022-08-02T23:11:18.310Z,78.40
2022-08-02T23:13:42.291Z,78.50
2022-08-02T23:16:24.413Z,78.50
2022-08-02T23:19:05.177Z,77.20
2022-08-02T23:21:46.222Z,77.00
2022-08-02T23:24:18.695Z,78.80
2022-08-02T23:26:42.427Z,78.80
2022-08-02T23:29:06.521Z,78.40
2022-08-02T23:31:33.204Z,80.60
2022-08-02T23:34:04.123Z,78.70
2022-08-02T23:36:30.103Z,78.70
2022-08-02T23:38:53.857Z,80.60
2022-08-02T23:41:17.378Z,81.40
2022-08-02T23:44:04.036Z,81.20
2022-08-02T23:46:25.369Z,80.60
2022-08-02T23:48:48.983Z,80.30
2022-08-02T23:51:22.003Z,81.20
2022-08-02T23:53:47.472Z,81.80
2022-08-02T23:56:11.040Z,82.00
2022-08-02T23:58:34.795Z,82.10
